sensor_id;sensor_type;location;lat;lon;timestamp;temperature;humidity
26037;DHT22;13810;48.376;10.944;2023-03-12T00:00:21;-3.30;99.90
26037;DHT22;13810;48.376;10.944;2023-03-12T00:00:52;-3.30;99.90
26037;DHT22;13810;48.376;10.944;2023-03-12T00:01:24;-3.30;99.90
26037;DHT22;13810;48.376;10.944;2023-03-12T00:01:56;-3.30;99.90
26037;DHT22;13810;48.376;10.944;2023-03-12T00:02:29;-3.30;99.90
26037;DHT22;13810;48.376;10.944;2023-03-12T00:02:59;-3.40;99.90
26037;DHT22;13810;48.376;10.944;2023-03-12T00:03:30;-3.40;99.90
26037;DHT22;13810;48.376;10.944;2023-03-12T00:04:01;-3.40;99.90
26037;DHT22;13810;48.376;10.944;2023-03-12T00:04:31;-3.40;99.90
26037;DHT22;13810;48.376;10.944;2023-03-12T00:05:04;-3.40;99.90
26037;DHT22;13810;48.376;10.944;2023-03-12T00:05:39;-3.40;99.90
26037;DHT22;13810;48.376;10.944;2023-03-12T00:06:10;-3.40;99.90
26037;DHT22;13810;48.376;10.944;2023-03-12T00:06:41;-3.40;99.90
26037;DHT22;13810;48.376;10.944;2023-03-12T00:07:12;-3.40;99.90
26037;DHT22;13810;48.376;10.944;2023-03-12T00:07:42;-3.40;99.90
26037;DHT22;13810;48.376;10.944;2023-03-12T00:08:13;-3.50;99.90
26037;DHT22;13810;48.376;10.944;2023-03-12T00:08:44;-3.50;99.90
26037;DHT22;13810;48.376;10.944;2023-03-12T00:09:14;-3.50;99.90
26037;DHT22;13810;48.376;10.944;2023-03-12T00:09:45;-3.50;99.90
26037;DHT22;13810;48.376;10.944;2023-03-12T00:10:16;-3.50;99.90
26037;DHT22;13810;48.376;10.944;2023-03-12T00:10:46;-3.50;99.90
26037;DHT22;13810;48.376;10.944;2023-03-12T00:11:19;-3.50;99.90
26037;DHT22;13810;48.376;10.944;2023-03-12T00:11:50;-3.50;99.90
26037;DHT22;13810;48.376;10.944;2023-03-12T00:12:21;-3.50;99.90
26037;DHT22;13810;48.376;10.944;2023-03-12T00:12:51;-3.50;99.90
26037;DHT22;13810;48.376;10.944;2023-03-12T00:13:22;-3.50;99.90
26037;DHT22;13810;48.376;10.944;2023-03-12T00:13:56;-3.50;99.90
26037;DHT22;13810;48.376;10.944;2023-03-12T00:14:27;-3.50;99.90
26037;DHT22;13810;48.376;10.944;2023-03-12T00:14:58;-3.40;99.90
26037;DHT22;13810;48.376;10.944;2023-03-12T00:15:28;-3.40;99.90
26037;DHT22;13810;48.376;10.944;2023-03-12T00:16:04;-3.40;99.90
26037;DHT22;13810;48.376;10.944;2023-03-12T00:16:35;-3.40;99.90
26037;DHT22;13810;48.376;10.944;2023-03-12T00:17:05;-3.40;99.90
26037;DHT22;13810;48.376;10.944;2023-03-12T00:17:36;-3.40;99.90
26037;DHT22;13810;48.376;10.944;2023-03-12T00:18:06;-3.40;99.90
26037;DHT22;13810;48.376;10.944;2023-03-12T00:18:38;-3.40;99.90
26037;DHT22;13810;48.376;10.944;2023-03-12T00:19:11;-3.40;99.90
26037;DHT22;13810;48.376;10.944;2023-03-12T00:19:42;-3.40;99.90
26037;DHT22;13810;48.376;10.944;2023-03-12T00:20:14;-3.40;99.90
26037;DHT22;13810;48.376;10.944;2023-03-12T00:20:52;-3.40;99.90
26037;DHT22;13810;48.376;10.944;2023-03-12T00:21:23;-3.40;99.90
26037;DHT22;13810;48.376;10.944;2023-03-12T00:21:54;-3.40;99.90
26037;DHT22;13810;48.376;10.944;2023-03-12T00:22:25;-3.40;99.90
26037;DHT22;13810;48.376;10.944;2023-03-12T00:22:55;-3.30;99.90
26037;DHT22;13810;48.376;10.944;2023-03-12T00:23:26;-3.30;99.90
26037;DHT22;13810;48.376;10.944;2023-03-12T00:23:57;-3.30;99.90
26037;DHT22;13810;48.376;10.944;2023-03-12T00:24:27;-3.30;99.90
26037;DHT22;13810;48.376;10.944;2023-03-12T00:24:58;-3.30;99.90
26037;DHT22;13810;48.376;10.944;2023-03-12T00:25:29;-3.30;99.90
26037;DHT22;13810;48.376;10.944;2023-03-12T00:26:11;-3.30;99.90
26037;DHT22;13810;48.376;10.944;2023-03-12T00:26:42;-3.30;99.90
26037;DHT22;13810;48.376;10.944;2023-03-12T00:27:13;-3.30;99.90
26037;DHT22;13810;48.376;10.944;2023-03-12T00:27:44;-3.30;99.90
26037;DHT22;13810;48.376;10.944;2023-03-12T00:28:14;-3.30;99.90
26037;DHT22;13810;48.376;10.944;2023-03-12T00:28:47;-3.30;99.90
26037;DHT22;13810;48.376;10.944;2023-03-12T00:29:19;-3.30;99.90
26037;DHT22;13810;48.376;10.944;2023-03-12T00:29:49;-3.30;99.90
26037;DHT22;13810;48.376;10.944;2023-03-12T00:30:20;-3.30;99.90
26037;DHT22;13810;48.376;10.944;2023-03-12T00:30:51;-3.30;99.90
26037;DHT22;13810;48.376;10.944;2023-03-12T00:31:28;-3.30;99.90
26037;DHT22;13810;48.376;10.944;2023-03-12T00:31:59;-3.30;99.90
26037;DHT22;13810;48.376;10.944;2023-03-12T00:32:32;-3.30;99.90
26037;DHT22;13810;48.376;10.944;2023-03-12T00:33:03;-3.30;99.90
26037;DHT22;13810;48.376;10.944;2023-03-12T00:33:33;-3.30;99.90
26037;DHT22;13810;48.376;10.944;2023-03-12T00:34:04;-3.30;99.90
26037;DHT22;13810;48.376;10.944;2023-03-12T00:34:35;-3.30;99.90
26037;DHT22;13810;48.376;10.944;2023-03-12T00:35:06;-3.30;99.90
26037;DHT22;13810;48.376;10.944;2023-03-12T00:35:39;-3.30;99.90
26037;DHT22;13810;48.376;10.944;2023-03-12T00:36:10;-3.30;99.90
26037;DHT22;13810;48.376;10.944;2023-03-12T00:36:41;-3.30;99.90
26037;DHT22;13810;48.376;10.944;2023-03-12T00:37:12;-3.30;99.90
26037;DHT22;13810;48.376;10.944;2023-03-12T00:37:42;-3.30;99.90
26037;DHT22;13810;48.376;10.944;2023-03-12T00:38:13;-3.40;99.90
26037;DHT22;13810;48.376;10.944;2023-03-12T00:38:44;-3.40;99.90
26037;DHT22;13810;48.376;10.944;2023-03-12T00:39:15;-3.40;99.90
26037;DHT22;13810;48.376;10.944;2023-03-12T00:39:45;-3.40;99.90
26037;DHT22;13810;48.376;10.944;2023-03-12T00:40:16;-3.40;99.90
26037;DHT22;13810;48.376;10.944;2023-03-12T00:40:47;-3.40;99.90
26037;DHT22;13810;48.376;10.944;2023-03-12T00:41:18;-3.40;99.90
26037;DHT22;13810;48.376;10.944;2023-03-12T00:41:49;-3.30;99.90
26037;DHT22;13810;48.376;10.944;2023-03-12T00:42:20;-3.40;99.90
26037;DHT22;13810;48.376;10.944;2023-03-12T00:42:50;-3.40;99.90
26037;DHT22;13810;48.376;10.944;2023-03-12T00:43:21;-3.40;99.90
26037;DHT22;13810;48.376;10.944;2023-03-12T00:43:52;-3.40;99.90
26037;DHT22;13810;48.376;10.944;2023-03-12T00:44:22;-3.40;99.90
26037;DHT22;13810;48.376;10.944;2023-03-12T00:44:53;-3.40;99.90
26037;DHT22;13810;48.376;10.944;2023-03-12T00:45:24;-3.30;99.90
26037;DHT22;13810;48.376;10.944;2023-03-12T00:45:54;-3.30;99.90
26037;DHT22;13810;48.376;10.944;2023-03-12T00:46:25;-3.40;99.90
26037;DHT22;13810;48.376;10.944;2023-03-12T00:46:55;-3.40;99.90
26037;DHT22;13810;48.376;10.944;2023-03-12T00:47:26;-3.40;99.90
26037;DHT22;13810;48.376;10.944;2023-03-12T00:47:57;-3.30;99.90
26037;DHT22;13810;48.376;10.944;2023-03-12T00:48:27;-3.30;99.90
26037;DHT22;13810;48.376;10.944;2023-03-12T00:48:58;-3.40;99.90
26037;DHT22;13810;48.376;10.944;2023-03-12T00:49:29;-3.30;99.90
26037;DHT22;13810;48.376;10.944;2023-03-12T00:49:59;-3.40;99.90
26037;DHT22;13810;48.376;10.944;2023-03-12T00:50:30;-3.40;99.90
26037;DHT22;13810;48.376;10.944;2023-03-12T00:51:01;-3.40;99.90
26037;DHT22;13810;48.376;10.944;2023-03-12T00:51:31;-3.40;99.90
26037;DHT22;13810;48.376;10.944;2023-03-12T00:52:02;-3.40;99.90
26037;DHT22;13810;48.376;10.944;2023-03-12T00:52:33;-3.50;99.90
26037;DHT22;13810;48.376;10.944;2023-03-12T00:53:04;-3.50;99.90
26037;DHT22;13810;48.376;10.944;2023-03-12T00:53:35;-3.50;99.90
26037;DHT22;13810;48.376;10.944;2023-03-12T00:54:06;-3.50;99.90
26037;DHT22;13810;48.376;10.944;2023-03-12T00:54:36;-3.60;99.90
26037;DHT22;13810;48.376;10.944;2023-03-12T00:55:07;-3.60;99.90
26037;DHT22;13810;48.376;10.944;2023-03-12T00:55:38;-3.60;99.90
26037;DHT22;13810;48.376;10.944;2023-03-12T00:56:09;-3.60;99.90
26037;DHT22;13810;48.376;10.944;2023-03-12T00:56:40;-3.60;99.90
26037;DHT22;13810;48.376;10.944;2023-03-12T00:57:10;-3.70;99.90
26037;DHT22;13810;48.376;10.944;2023-03-12T00:57:41;-3.70;99.90
26037;DHT22;13810;48.376;10.944;2023-03-12T00:58:12;-3.70;99.90
26037;DHT22;13810;48.376;10.944;2023-03-12T00:58:42;-3.70;99.90
26037;DHT22;13810;48.376;10.944;2023-03-12T00:59:14;-3.70;99.90
26037;DHT22;13810;48.376;10.944;2023-03-12T00:59:45;-3.70;99.90
26037;DHT22;13810;48.376;10.944;2023-03-12T01:00:16;-3.70;99.90
26037;DHT22;13810;48.376;10.944;2023-03-12T01:00:47;-3.70;99.90
26037;DHT22;13810;48.376;10.944;2023-03-12T01:01:17;-3.70;99.90
26037;DHT22;13810;48.376;10.944;2023-03-12T01:01:49;-3.70;99.90
26037;DHT22;13810;48.376;10.944;2023-03-12T01:02:19;-3.80;99.90
26037;DHT22;13810;48.376;10.944;2023-03-12T01:02:50;-3.80;99.90
26037;DHT22;13810;48.376;10.944;2023-03-12T01:03:21;-3.80;99.90
26037;DHT22;13810;48.376;10.944;2023-03-12T01:03:52;-3.70;99.90
26037;DHT22;13810;48.376;10.944;2023-03-12T01:04:23;-3.80;99.90
26037;DHT22;13810;48.376;10.944;2023-03-12T01:04:54;-3.80;99.90
26037;DHT22;13810;48.376;10.944;2023-03-12T01:05:24;-3.80;99.90
26037;DHT22;13810;48.376;10.944;2023-03-12T01:05:55;-3.80;99.90
26037;DHT22;13810;48.376;10.944;2023-03-12T01:06:26;-3.80;99.90
26037;DHT22;13810;48.376;10.944;2023-03-12T01:06:56;-3.80;99.90
26037;DHT22;13810;48.376;10.944;2023-03-12T01:07:27;-3.80;99.90
26037;DHT22;13810;48.376;10.944;2023-03-12T01:07:58;-3.80;99.90
26037;DHT22;13810;48.376;10.944;2023-03-12T01:08:29;-3.80;99.90
26037;DHT22;13810;48.376;10.944;2023-03-12T01:09:01;-3.80;99.90
26037;DHT22;13810;48.376;10.944;2023-03-12T01:09:33;-3.80;99.90
26037;DHT22;13810;48.376;10.944;2023-03-12T01:10:05;-3.80;99.90
26037;DHT22;13810;48.376;10.944;2023-03-12T01:10:39;-3.80;99.90
26037;DHT22;13810;48.376;10.944;2023-03-12T01:11:15;-3.80;99.90
26037;DHT22;13810;48.376;10.944;2023-03-12T01:11:45;-3.80;99.90
26037;DHT22;13810;48.376;10.944;2023-03-12T01:12:16;-3.80;99.90
26037;DHT22;13810;48.376;10.944;2023-03-12T01:12:47;-3.70;99.90
26037;DHT22;13810;48.376;10.944;2023-03-12T01:13:17;-3.70;99.90
26037;DHT22;13810;48.376;10.944;2023-03-12T01:13:48;-3.70;99.90
26037;DHT22;13810;48.376;10.944;2023-03-12T01:14:19;-3.70;99.90
26037;DHT22;13810;48.376;10.944;2023-03-12T01:14:50;-3.70;99.90
26037;DHT22;13810;48.376;10.944;2023-03-12T01:15:21;-3.70;99.90
26037;DHT22;13810;48.376;10.944;2023-03-12T01:15:51;-3.70;99.90
26037;DHT22;13810;48.376;10.944;2023-03-12T01:16:22;-3.70;99.90
26037;DHT22;13810;48.376;10.944;2023-03-12T01:16:57;-3.70;99.90
26037;DHT22;13810;48.376;10.944;2023-03-12T01:17:28;-3.70;99.90
26037;DHT22;13810;48.376;10.944;2023-03-12T01:17:58;-3.70;99.90
26037;DHT22;13810;48.376;10.944;2023-03-12T01:18:29;-3.70;99.90
26037;DHT22;13810;48.376;10.944;2023-03-12T01:19:01;-3.70;99.90
26037;DHT22;13810;48.376;10.944;2023-03-12T01:19:32;-3.70;99.90
26037;DHT22;13810;48.376;10.944;2023-03-12T01:20:03;-3.70;99.90
26037;DHT22;13810;48.376;10.944;2023-03-12T01:20:35;-3.70;99.90
26037;DHT22;13810;48.376;10.944;2023-03-12T01:21:06;-3.70;99.90
26037;DHT22;13810;48.376;10.944;2023-03-12T01:21:36;-3.70;99.90
26037;DHT22;13810;48.376;10.944;2023-03-12T01:22:07;-3.70;99.90
26037;DHT22;13810;48.376;10.944;2023-03-12T01:22:38;-3.70;99.90
26037;DHT22;13810;48.376;10.944;2023-03-12T01:23:09;-3.70;99.90
26037;DHT22;13810;48.376;10.944;2023-03-12T01:23:40;-3.70;99.90
26037;DHT22;13810;48.376;10.944;2023-03-12T01:24:10;-3.70;99.90
26037;DHT22;13810;48.376;10.944;2023-03-12T01:24:41;-3.70;99.90
26037;DHT22;13810;48.376;10.944;2023-03-12T01:25:11;-3.80;99.90
26037;DHT22;13810;48.376;10.944;2023-03-12T01:25:42;-3.70;99.90
26037;DHT22;13810;48.376;10.944;2023-03-12T01:26:13;-3.70;99.90
26037;DHT22;13810;48.376;10.944;2023-03-12T01:26:44;-3.70;99.90
26037;DHT22;13810;48.376;10.944;2023-03-12T01:27:14;-3.70;99.90
26037;DHT22;13810;48.376;10.944;2023-03-12T01:27:45;-3.70;99.90
26037;DHT22;13810;48.376;10.944;2023-03-12T01:28:16;-3.70;99.90
26037;DHT22;13810;48.376;10.944;2023-03-12T01:28:47;-3.70;99.90
26037;DHT22;13810;48.376;10.944;2023-03-12T01:29:17;-3.70;99.90
26037;DHT22;13810;48.376;10.944;2023-03-12T01:29:48;-3.70;99.90
26037;DHT22;13810;48.376;10.944;2023-03-12T01:30:19;-3.70;99.90
26037;DHT22;13810;48.376;10.944;2023-03-12T01:30:49;-3.70;99.90
26037;DHT22;13810;48.376;10.944;2023-03-12T01:31:20;-3.70;99.90
26037;DHT22;13810;48.376;10.944;2023-03-12T01:31:51;-3.70;99.90
26037;DHT22;13810;48.376;10.944;2023-03-12T01:32:22;-3.70;99.90
26037;DHT22;13810;48.376;10.944;2023-03-12T01:32:53;-3.70;99.90
26037;DHT22;13810;48.376;10.944;2023-03-12T01:33:23;-3.70;99.90
26037;DHT22;13810;48.376;10.944;2023-03-12T01:33:54;-3.70;99.90
26037;DHT22;13810;48.376;10.944;2023-03-12T01:34:25;-3.80;99.90
26037;DHT22;13810;48.376;10.944;2023-03-12T01:34:57;-3.80;99.90
26037;DHT22;13810;48.376;10.944;2023-03-12T01:35:28;-3.80;99.90
26037;DHT22;13810;48.376;10.944;2023-03-12T01:35:58;-3.80;99.90
26037;DHT22;13810;48.376;10.944;2023-03-12T01:36:29;-3.80;99.90
26037;DHT22;13810;48.376;10.944;2023-03-12T01:37:01;-3.80;99.90
26037;DHT22;13810;48.376;10.944;2023-03-12T01:37:32;-3.80;99.90
26037;DHT22;13810;48.376;10.944;2023-03-12T01:38:03;-3.80;99.90
26037;DHT22;13810;48.376;10.944;2023-03-12T01:38:34;-3.80;99.90
26037;DHT22;13810;48.376;10.944;2023-03-12T01:39:05;-3.80;99.90
26037;DHT22;13810;48.376;10.944;2023-03-12T01:39:35;-3.90;99.90
26037;DHT22;13810;48.376;10.944;2023-03-12T01:40:06;-3.80;99.90
26037;DHT22;13810;48.376;10.944;2023-03-12T01:40:37;-3.80;99.90
26037;DHT22;13810;48.376;10.944;2023-03-12T01:41:08;-3.80;99.90
26037;DHT22;13810;48.376;10.944;2023-03-12T01:41:39;-3.80;99.90
26037;DHT22;13810;48.376;10.944;2023-03-12T01:42:10;-3.80;99.90
26037;DHT22;13810;48.376;10.944;2023-03-12T01:42:41;-3.80;99.90
26037;DHT22;13810;48.376;10.944;2023-03-12T01:43:31;-3.80;99.90
26037;DHT22;13810;48.376;10.944;2023-03-12T01:44:03;-3.80;99.90
26037;DHT22;13810;48.376;10.944;2023-03-12T01:44:54;-3.80;99.90
26037;DHT22;13810;48.376;10.944;2023-03-12T01:46:37;-3.80;99.90
26037;DHT22;13810;48.376;10.944;2023-03-12T01:47:08;-3.80;99.90
26037;DHT22;13810;48.376;10.944;2023-03-12T01:47:38;-3.80;99.90
26037;DHT22;13810;48.376;10.944;2023-03-12T01:48:09;-3.80;99.90
26037;DHT22;13810;48.376;10.944;2023-03-12T01:48:46;-3.80;99.90
26037;DHT22;13810;48.376;10.944;2023-03-12T01:49:30;-3.80;99.90
26037;DHT22;13810;48.376;10.944;2023-03-12T01:50:02;-3.80;99.90
26037;DHT22;13810;48.376;10.944;2023-03-12T01:50:34;-3.80;99.90
26037;DHT22;13810;48.376;10.944;2023-03-12T01:51:05;-3.80;99.90
26037;DHT22;13810;48.376;10.944;2023-03-12T01:52:21;-3.80;99.90
26037;DHT22;13810;48.376;10.944;2023-03-12T01:52:52;-3.80;99.90
26037;DHT22;13810;48.376;10.944;2023-03-12T01:53:23;-3.80;99.90
26037;DHT22;13810;48.376;10.944;2023-03-12T01:53:58;-3.80;99.90
26037;DHT22;13810;48.376;10.944;2023-03-12T01:54:54;-3.80;99.90
26037;DHT22;13810;48.376;10.944;2023-03-12T01:55:26;-3.80;99.90
26037;DHT22;13810;48.376;10.944;2023-03-12T01:55:58;-3.70;99.90
26037;DHT22;13810;48.376;10.944;2023-03-12T01:56:32;-3.70;99.90
26037;DHT22;13810;48.376;10.944;2023-03-12T01:57:05;-3.70;99.90
26037;DHT22;13810;48.376;10.944;2023-03-12T01:57:52;-3.70;99.90
26037;DHT22;13810;48.376;10.944;2023-03-12T01:58:26;-3.70;99.90
26037;DHT22;13810;48.376;10.944;2023-03-12T01:59:01;-3.70;99.90
26037;DHT22;13810;48.376;10.944;2023-03-12T01:59:39;-3.70;99.90
26037;DHT22;13810;48.376;10.944;2023-03-12T02:00:15;-3.70;99.90
26037;DHT22;13810;48.376;10.944;2023-03-12T02:00:47;-3.70;99.90
26037;DHT22;13810;48.376;10.944;2023-03-12T02:01:19;-3.70;99.90
26037;DHT22;13810;48.376;10.944;2023-03-12T02:01:51;-3.70;99.90
26037;DHT22;13810;48.376;10.944;2023-03-12T02:02:22;-3.70;99.90
26037;DHT22;13810;48.376;10.944;2023-03-12T02:03:01;-3.80;99.90
26037;DHT22;13810;48.376;10.944;2023-03-12T02:03:34;-3.80;99.90
26037;DHT22;13810;48.376;10.944;2023-03-12T02:04:05;-3.80;99.90
26037;DHT22;13810;48.376;10.944;2023-03-12T02:04:37;-3.80;99.90
26037;DHT22;13810;48.376;10.944;2023-03-12T02:06:10;-3.80;99.90
26037;DHT22;13810;48.376;10.944;2023-03-12T02:07:25;-3.80;99.90
26037;DHT22;13810;48.376;10.944;2023-03-12T02:07:56;-3.70;99.90
26037;DHT22;13810;48.376;10.944;2023-03-12T02:08:27;-3.70;99.90
26037;DHT22;13810;48.376;10.944;2023-03-12T02:09:00;-3.70;99.90
26037;DHT22;13810;48.376;10.944;2023-03-12T02:09:33;-3.70;99.90
26037;DHT22;13810;48.376;10.944;2023-03-12T02:10:05;-3.70;99.90
26037;DHT22;13810;48.376;10.944;2023-03-12T02:10:36;-3.70;99.90
26037;DHT22;13810;48.376;10.944;2023-03-12T02:11:08;-3.70;99.90
26037;DHT22;13810;48.376;10.944;2023-03-12T02:11:39;-3.70;99.90
26037;DHT22;13810;48.376;10.944;2023-03-12T02:12:10;-3.70;99.90
26037;DHT22;13810;48.376;10.944;2023-03-12T02:12:40;-3.80;99.90
26037;DHT22;13810;48.376;10.944;2023-03-12T02:13:12;-3.70;99.90
26037;DHT22;13810;48.376;10.944;2023-03-12T02:13:43;-3.70;99.90
26037;DHT22;13810;48.376;10.944;2023-03-12T02:14:14;-3.80;99.90
26037;DHT22;13810;48.376;10.944;2023-03-12T02:14:45;-3.80;99.90
26037;DHT22;13810;48.376;10.944;2023-03-12T02:15:16;-3.80;99.90
26037;DHT22;13810;48.376;10.944;2023-03-12T02:15:47;-3.80;99.90
26037;DHT22;13810;48.376;10.944;2023-03-12T02:16:18;-3.80;99.90
26037;DHT22;13810;48.376;10.944;2023-03-12T02:16:50;-3.80;99.90
26037;DHT22;13810;48.376;10.944;2023-03-12T02:17:21;-3.80;99.90
26037;DHT22;13810;48.376;10.944;2023-03-12T02:17:52;-3.80;99.90
26037;DHT22;13810;48.376;10.944;2023-03-12T02:18:23;-3.80;99.90
26037;DHT22;13810;48.376;10.944;2023-03-12T02:18:55;-3.80;99.90
26037;DHT22;13810;48.376;10.944;2023-03-12T02:19:40;-3.80;99.90
26037;DHT22;13810;48.376;10.944;2023-03-12T02:20:32;-3.80;99.90
26037;DHT22;13810;48.376;10.944;2023-03-12T02:21:15;-3.80;99.90
26037;DHT22;13810;48.376;10.944;2023-03-12T02:21:47;-3.80;99.90
26037;DHT22;13810;48.376;10.944;2023-03-12T02:22:19;-3.90;99.90
26037;DHT22;13810;48.376;10.944;2023-03-12T02:23:02;-3.90;99.90
26037;DHT22;13810;48.376;10.944;2023-03-12T02:23:57;-3.90;99.90
26037;DHT22;13810;48.376;10.944;2023-03-12T02:24:47;-3.90;99.90
26037;DHT22;13810;48.376;10.944;2023-03-12T02:25:37;-3.90;99.90
26037;DHT22;13810;48.376;10.944;2023-03-12T02:26:10;-3.90;99.90
26037;DHT22;13810;48.376;10.944;2023-03-12T02:26:41;-3.90;99.90
26037;DHT22;13810;48.376;10.944;2023-03-12T02:27:13;-3.90;99.90
26037;DHT22;13810;48.376;10.944;2023-03-12T02:27:44;-3.90;99.90
26037;DHT22;13810;48.376;10.944;2023-03-12T02:28:17;-3.90;99.90
26037;DHT22;13810;48.376;10.944;2023-03-12T02:28:49;-3.90;99.90
26037;DHT22;13810;48.376;10.944;2023-03-12T02:29:21;-3.90;99.90
26037;DHT22;13810;48.376;10.944;2023-03-12T02:29:52;-3.90;99.90
26037;DHT22;13810;48.376;10.944;2023-03-12T02:30:23;-3.90;99.90
26037;DHT22;13810;48.376;10.944;2023-03-12T02:30:59;-4.00;99.90
26037;DHT22;13810;48.376;10.944;2023-03-12T02:31:43;-4.00;99.90
26037;DHT22;13810;48.376;10.944;2023-03-12T02:32:22;-4.00;99.90
26037;DHT22;13810;48.376;10.944;2023-03-12T02:32:54;-4.00;99.90
26037;DHT22;13810;48.376;10.944;2023-03-12T02:33:25;-4.00;99.90
26037;DHT22;13810;48.376;10.944;2023-03-12T02:33:57;-4.00;99.90
26037;DHT22;13810;48.376;10.944;2023-03-12T02:34:29;-4.00;99.90
26037;DHT22;13810;48.376;10.944;2023-03-12T02:35:01;-4.00;99.90
26037;DHT22;13810;48.376;10.944;2023-03-12T02:35:33;-4.00;99.90
26037;DHT22;13810;48.376;10.944;2023-03-12T02:36:04;-4.00;99.90
26037;DHT22;13810;48.376;10.944;2023-03-12T02:36:35;-3.90;99.90
26037;DHT22;13810;48.376;10.944;2023-03-12T02:37:05;-4.00;99.90
26037;DHT22;13810;48.376;10.944;2023-03-12T02:37:49;-3.90;99.90
26037;DHT22;13810;48.376;10.944;2023-03-12T02:39:05;-4.00;99.90
26037;DHT22;13810;48.376;10.944;2023-03-12T02:39:37;-4.00;99.90
26037;DHT22;13810;48.376;10.944;2023-03-12T02:40:17;-4.00;99.90
26037;DHT22;13810;48.376;10.944;2023-03-12T02:40:51;-4.00;99.90
26037;DHT22;13810;48.376;10.944;2023-03-12T02:41:36;-3.90;99.90
26037;DHT22;13810;48.376;10.944;2023-03-12T02:42:07;-4.00;99.90
26037;DHT22;13810;48.376;10.944;2023-03-12T02:42:38;-4.00;99.90
26037;DHT22;13810;48.376;10.944;2023-03-12T02:43:09;-4.00;99.90
26037;DHT22;13810;48.376;10.944;2023-03-12T02:43:43;-4.00;99.90
26037;DHT22;13810;48.376;10.944;2023-03-12T02:44:20;-4.10;99.90
26037;DHT22;13810;48.376;10.944;2023-03-12T02:44:51;-4.10;99.90
26037;DHT22;13810;48.376;10.944;2023-03-12T02:45:23;-4.10;99.90
26037;DHT22;13810;48.376;10.944;2023-03-12T02:45:54;-4.10;99.90
26037;DHT22;13810;48.376;10.944;2023-03-12T02:46:25;-4.10;99.90
26037;DHT22;13810;48.376;10.944;2023-03-12T02:46:58;-4.10;99.90
26037;DHT22;13810;48.376;10.944;2023-03-12T02:47:29;-4.10;99.90
26037;DHT22;13810;48.376;10.944;2023-03-12T02:48:01;-4.10;99.90
26037;DHT22;13810;48.376;10.944;2023-03-12T02:48:32;-4.10;99.90
26037;DHT22;13810;48.376;10.944;2023-03-12T02:49:03;-4.10;99.90
26037;DHT22;13810;48.376;10.944;2023-03-12T02:49:34;-4.10;99.90
26037;DHT22;13810;48.376;10.944;2023-03-12T02:50:05;-4.10;99.90
26037;DHT22;13810;48.376;10.944;2023-03-12T02:50:36;-4.10;99.90
26037;DHT22;13810;48.376;10.944;2023-03-12T02:51:06;-4.10;99.90
26037;DHT22;13810;48.376;10.944;2023-03-12T02:51:38;-4.10;99.90
26037;DHT22;13810;48.376;10.944;2023-03-12T02:52:09;-4.10;99.90
26037;DHT22;13810;48.376;10.944;2023-03-12T02:52:40;-4.10;99.90
26037;DHT22;13810;48.376;10.944;2023-03-12T02:53:11;-4.10;99.90
26037;DHT22;13810;48.376;10.944;2023-03-12T02:53:41;-4.10;99.90
26037;DHT22;13810;48.376;10.944;2023-03-12T02:54:13;-4.10;99.90
26037;DHT22;13810;48.376;10.944;2023-03-12T02:54:44;-4.00;99.90
26037;DHT22;13810;48.376;10.944;2023-03-12T02:55:15;-4.00;99.90
26037;DHT22;13810;48.376;10.944;2023-03-12T02:55:45;-4.00;99.90
26037;DHT22;13810;48.376;10.944;2023-03-12T02:56:16;-4.00;99.90
26037;DHT22;13810;48.376;10.944;2023-03-12T02:56:47;-4.00;99.90
26037;DHT22;13810;48.376;10.944;2023-03-12T02:57:18;-4.00;99.90
26037;DHT22;13810;48.376;10.944;2023-03-12T02:57:49;-4.00;99.90
26037;DHT22;13810;48.376;10.944;2023-03-12T02:58:19;-4.00;99.90
26037;DHT22;13810;48.376;10.944;2023-03-12T02:58:50;-4.00;99.90
26037;DHT22;13810;48.376;10.944;2023-03-12T02:59:22;-3.90;99.90
26037;DHT22;13810;48.376;10.944;2023-03-12T02:59:55;-3.90;99.90
26037;DHT22;13810;48.376;10.944;2023-03-12T03:00:25;-3.90;99.90
26037;DHT22;13810;48.376;10.944;2023-03-12T03:00:56;-3.90;99.90
26037;DHT22;13810;48.376;10.944;2023-03-12T03:01:27;-3.90;99.90
26037;DHT22;13810;48.376;10.944;2023-03-12T03:01:59;-3.90;99.90
26037;DHT22;13810;48.376;10.944;2023-03-12T03:02:29;-3.80;99.90
26037;DHT22;13810;48.376;10.944;2023-03-12T03:03:00;-3.80;99.90
26037;DHT22;13810;48.376;10.944;2023-03-12T03:03:31;-3.80;99.90
26037;DHT22;13810;48.376;10.944;2023-03-12T03:04:03;-3.80;99.90
26037;DHT22;13810;48.376;10.944;2023-03-12T03:04:34;-3.80;99.90
26037;DHT22;13810;48.376;10.944;2023-03-12T03:05:06;-3.70;99.90
26037;DHT22;13810;48.376;10.944;2023-03-12T03:05:37;-3.70;99.90
26037;DHT22;13810;48.376;10.944;2023-03-12T03:06:08;-3.70;99.90
26037;DHT22;13810;48.376;10.944;2023-03-12T03:06:40;-3.70;99.90
26037;DHT22;13810;48.376;10.944;2023-03-12T03:07:12;-3.60;99.90
26037;DHT22;13810;48.376;10.944;2023-03-12T03:07:44;-3.60;99.90
26037;DHT22;13810;48.376;10.944;2023-03-12T03:08:14;-3.60;99.90
26037;DHT22;13810;48.376;10.944;2023-03-12T03:08:45;-3.60;99.90
26037;DHT22;13810;48.376;10.944;2023-03-12T03:09:16;-3.50;99.90
26037;DHT22;13810;48.376;10.944;2023-03-12T03:09:47;-3.50;99.90
26037;DHT22;13810;48.376;10.944;2023-03-12T03:10:17;-3.50;99.90
26037;DHT22;13810;48.376;10.944;2023-03-12T03:10:50;-3.50;99.90
26037;DHT22;13810;48.376;10.944;2023-03-12T03:11:21;-3.40;99.90
26037;DHT22;13810;48.376;10.944;2023-03-12T03:11:54;-3.40;99.90
26037;DHT22;13810;48.376;10.944;2023-03-12T03:12:25;-3.40;99.90
26037;DHT22;13810;48.376;10.944;2023-03-12T03:12:55;-3.40;99.90
26037;DHT22;13810;48.376;10.944;2023-03-12T03:13:27;-3.40;99.90
26037;DHT22;13810;48.376;10.944;2023-03-12T03:13:58;-3.30;99.90
26037;DHT22;13810;48.376;10.944;2023-03-12T03:14:29;-3.30;99.90
26037;DHT22;13810;48.376;10.944;2023-03-12T03:14:59;-3.30;99.90
26037;DHT22;13810;48.376;10.944;2023-03-12T03:15:30;-3.30;99.90
26037;DHT22;13810;48.376;10.944;2023-03-12T03:16:01;-3.30;99.90
26037;DHT22;13810;48.376;10.944;2023-03-12T03:16:33;-3.30;99.90
26037;DHT22;13810;48.376;10.944;2023-03-12T03:17:04;-3.20;99.90
26037;DHT22;13810;48.376;10.944;2023-03-12T03:17:34;-3.20;99.90
26037;DHT22;13810;48.376;10.944;2023-03-12T03:18:05;-3.20;99.90
26037;DHT22;13810;48.376;10.944;2023-03-12T03:18:36;-3.20;99.90
26037;DHT22;13810;48.376;10.944;2023-03-12T03:19:07;-3.20;99.90
26037;DHT22;13810;48.376;10.944;2023-03-12T03:19:38;-3.10;99.90
26037;DHT22;13810;48.376;10.944;2023-03-12T03:20:09;-3.10;99.90
26037;DHT22;13810;48.376;10.944;2023-03-12T03:20:41;-3.10;99.90
26037;DHT22;13810;48.376;10.944;2023-03-12T03:21:16;-3.10;99.90
26037;DHT22;13810;48.376;10.944;2023-03-12T03:21:46;-3.10;99.90
26037;DHT22;13810;48.376;10.944;2023-03-12T03:22:18;-3.10;99.90
26037;DHT22;13810;48.376;10.944;2023-03-12T03:22:49;-3.10;99.90
26037;DHT22;13810;48.376;10.944;2023-03-12T03:23:20;-3.10;99.90
26037;DHT22;13810;48.376;10.944;2023-03-12T03:23:51;-3.10;99.90